sensor_id;sensor_type;location;lat;lon;timestamp;pressure;altitude;pressure_sealevel;temperature;humidity
77889;BME280;67082;41.704;44.768;2023-06-22T00:02:19;95530.84;;;19.78;77.11
77889;BME280;67082;41.704;44.768;2023-06-22T00:04:49;95528.81;;;19.73;77.22
77889;BME280;67082;41.704;44.768;2023-06-22T00:07:17;95526.75;;;19.68;77.83
77889;BME280;67082;41.704;44.768;2023-06-22T00:09:46;95527.78;;;19.65;77.35
77889;BME280;67082;41.704;44.768;2023-06-22T00:12:14;95519.84;;;19.64;76.43
77889;BME280;67082;41.704;44.768;2023-06-22T00:14:42;95522.16;;;19.65;76.46
77889;BME280;67082;41.704;44.768;2023-06-22T00:17:11;95517.59;;;19.62;76.76
77889;BME280;67082;41.704;44.768;2023-06-22T00:19:39;95511.97;;;19.62;76.67
77889;BME280;67082;41.704;44.768;2023-06-22T00:22:08;95516.56;;;19.54;77.10
77889;BME280;67082;41.704;44.768;2023-06-22T00:24:36;95516.56;;;19.54;77.01
77889;BME280;67082;41.704;44.768;2023-06-22T00:27:04;95510.47;;;19.50;76.89
77889;BME280;67082;41.704;44.768;2023-06-22T00:29:34;95513.50;;;19.52;76.75
77889;BME280;67082;41.704;44.768;2023-06-22T00:32:02;95521.69;;;19.50;76.04
77889;BME280;67082;41.704;44.768;2023-06-22T00:34:30;95517.34;;;19.55;76.04
77889;BME280;67082;41.704;44.768;2023-06-22T00:36:59;95523.47;;;19.53;76.87
77889;BME280;67082;41.704;44.768;2023-06-22T00:39:28;95520.66;;;19.53;76.40
77889;BME280;67082;41.704;44.768;2023-06-22T00:41:56;95525.53;;;19.53;76.04
77889;BME280;67082;41.704;44.768;2023-06-22T00:44:27;95515.81;;;19.54;76.26
77889;BME280;67082;41.704;44.768;2023-06-22T00:46:55;95522.72;;;19.47;76.16
77889;BME280;67082;41.704;44.768;2023-06-22T00:49:24;95526.28;;;19.53;76.27
77889;BME280;67082;41.704;44.768;2023-06-22T00:51:52;95525.53;;;19.53;76.15
77889;BME280;67082;41.704;44.768;2023-06-22T00:54:20;95529.13;;;19.48;77.24
77889;BME280;67082;41.704;44.768;2023-06-22T00:56:53;95532.66;;;19.48;77.18
77889;BME280;67082;41.704;44.768;2023-06-22T00:59:26;95531.91;;;19.53;76.71
77889;BME280;67082;41.704;44.768;2023-06-22T01:01:55;95530.38;;;19.52;77.08
77889;BME280;67082;41.704;44.768;2023-06-22T01:04:24;95537.28;;;19.51;76.97
77889;BME280;67082;41.704;44.768;2023-06-22T01:07:53;95528.09;;;19.45;77.18
77889;BME280;67082;41.704;44.768;2023-06-22T01:12:52;95531.16;;;19.42;76.63
77889;BME280;67082;41.704;44.768;2023-06-22T01:17:59;95537.81;;;19.33;77.60
77889;BME280;67082;41.704;44.768;2023-06-22T01:20:32;95530.13;;;19.34;77.82
77889;BME280;67082;41.704;44.768;2023-06-22T01:28:36;95545.22;;;19.36;77.14
77889;BME280;67082;41.704;44.768;2023-06-22T01:31:06;95545.47;;;19.38;77.09
77889;BME280;67082;41.704;44.768;2023-06-22T01:33:39;95546.22;;;19.39;76.57
77889;BME280;67082;41.704;44.768;2023-06-22T01:36:09;95541.13;;;19.26;76.17
77889;BME280;67082;41.704;44.768;2023-06-22T01:38:40;95549.06;;;19.28;76.30
77889;BME280;67082;41.704;44.768;2023-06-22T01:41:10;95545.47;;;19.33;76.18
77889;BME280;67082;41.704;44.768;2023-06-22T01:43:39;95546.50;;;19.30;76.68
77889;BME280;67082;41.704;44.768;2023-06-22T01:46:08;95542.91;;;19.35;76.09
77889;BME280;67082;41.704;44.768;2023-06-22T01:48:39;95542.41;;;19.36;76.22
77889;BME280;67082;41.704;44.768;2023-06-22T01:51:08;95541.38;;;19.39;76.46
77889;BME280;67082;41.704;44.768;2023-06-22T01:53:36;95544.69;;;19.43;76.70
77889;BME280;67082;41.704;44.768;2023-06-22T01:56:05;95542.41;;;19.42;76.32
77889;BME280;67082;41.704;44.768;2023-06-22T01:58:37;95543.16;;;19.48;76.09
77889;BME280;67082;41.704;44.768;2023-06-22T02:01:11;95541.63;;;19.41;76.14
77889;BME280;67082;41.704;44.768;2023-06-22T02:03:57;95540.63;;;19.44;75.52
77889;BME280;67082;41.704;44.768;2023-06-22T02:06:33;95531.66;;;19.46;75.15
77889;BME280;67082;41.704;44.768;2023-06-22T02:09:12;95533.97;;;19.47;74.39
77889;BME280;67082;41.704;44.768;2023-06-22T02:11:44;95532.94;;;19.50;74.50
77889;BME280;67082;41.704;44.768;2023-06-22T02:14:16;95543.41;;;19.55;75.57
77889;BME280;67082;41.704;44.768;2023-06-22T02:16:47;95544.69;;;19.60;76.20
77889;BME280;67082;41.704;44.768;2023-06-22T02:19:15;95532.41;;;19.57;75.89
77889;BME280;67082;41.704;44.768;2023-06-22T02:21:45;95542.88;;;19.62;75.70
77889;BME280;67082;41.704;44.768;2023-06-22T02:24:13;95533.41;;;19.65;75.28
77889;BME280;67082;41.704;44.768;2023-06-22T02:26:43;95542.09;;;19.78;75.34
77889;BME280;67082;41.704;44.768;2023-06-22T02:29:13;95532.31;;;19.85;73.96
77889;BME280;67082;41.704;44.768;2023-06-22T02:31:43;95546.91;;;19.89;74.28
77889;BME280;67082;41.704;44.768;2023-06-22T02:34:12;95549.16;;;19.96;74.63
77889;BME280;67082;41.704;44.768;2023-06-22T02:36:47;95546.09;;;20.05;74.94
77889;BME280;67082;41.704;44.768;2023-06-22T02:39:20;95538.66;;;20.02;75.13
77889;BME280;67082;41.704;44.768;2023-06-22T02:41:52;95544.28;;;20.13;75.04
77889;BME280;67082;41.704;44.768;2023-06-22T02:44:22;95536.56;;;20.19;75.00
77889;BME280;67082;41.704;44.768;2023-06-22T02:46:50;95543.69;;;20.31;74.91
77889;BME280;67082;41.704;44.768;2023-06-22T02:49:21;95534.94;;;20.40;74.55
77889;BME280;67082;41.704;44.768;2023-06-22T02:51:49;95544.13;;;20.46;74.30
77889;BME280;67082;41.704;44.768;2023-06-22T02:54:20;95532.06;;;20.51;74.04
77889;BME280;67082;41.704;44.768;2023-06-22T02:56:51;95542.50;;;20.56;74.06
77889;BME280;67082;41.704;44.768;2023-06-22T02:59:21;95544.31;;;20.59;73.71
77889;BME280;67082;41.704;44.768;2023-06-22T03:02:00;95546.28;;;20.69;73.54
77889;BME280;67082;41.704;44.768;2023-06-22T03:04:30;95547.63;;;20.63;73.91
77889;BME280;67082;41.704;44.768;2023-06-22T03:06:59;95545.81;;;20.65;73.64
77889;BME280;67082;41.704;44.768;2023-06-22T03:09:31;95547.34;;;20.66;73.84
77889;BME280;67082;41.704;44.768;2023-06-22T03:12:00;95549.09;;;20.69;72.90
77889;BME280;67082;41.704;44.768;2023-06-22T03:14:50;95552.97;;;20.66;73.59
77889;BME280;67082;41.704;44.768;2023-06-22T03:17:19;95551.72;;;20.62;73.33
77889;BME280;67082;41.704;44.768;2023-06-22T03:19:48;95550.66;;;20.65;73.36
77889;BME280;67082;41.704;44.768;2023-06-22T03:22:16;95558.88;;;20.57;73.42
77889;BME280;67082;41.704;44.768;2023-06-22T03:24:44;95554.00;;;20.63;72.78
77889;BME280;67082;41.704;44.768;2023-06-22T03:27:12;95555.84;;;20.55;72.62
77889;BME280;67082;41.704;44.768;2023-06-22T03:29:40;95548.69;;;20.49;73.53
77889;BME280;67082;41.704;44.768;2023-06-22T03:32:09;95556.34;;;20.54;72.93
77889;BME280;67082;41.704;44.768;2023-06-22T03:34:37;95554.59;;;20.51;72.80
77889;BME280;67082;41.704;44.768;2023-06-22T03:37:05;95562.47;;;20.58;72.90
77889;BME280;67082;41.704;44.768;2023-06-22T03:39:33;95565.53;;;20.60;72.75
77889;BME280;67082;41.704;44.768;2023-06-22T03:42:03;95567.59;;;20.59;73.18
77889;BME280;67082;41.704;44.768;2023-06-22T03:44:31;95571.69;;;20.58;73.38
77889;BME280;67082;41.704;44.768;2023-06-22T03:47:04;95580.34;;;20.66;72.92
77889;BME280;67082;41.704;44.768;2023-06-22T03:49:33;95571.44;;;20.62;73.24
77889;BME280;67082;41.704;44.768;2023-06-22T03:52:02;95579.94;;;20.51;72.96
77889;BME280;67082;41.704;44.768;2023-06-22T03:54:31;95569.47;;;20.40;73.55
77889;BME280;67082;41.704;44.768;2023-06-22T03:56:59;95575.38;;;20.37;72.93
77889;BME280;67082;41.704;44.768;2023-06-22T03:59:27;95574.81;;;20.44;73.46
77889;BME280;67082;41.704;44.768;2023-06-22T04:01:56;95567.41;;;20.46;73.29
77889;BME280;67082;41.704;44.768;2023-06-22T04:04:24;95573.75;;;20.52;72.91
77889;BME280;67082;41.704;44.768;2023-06-22T04:06:52;95576.56;;;20.52;72.81
77889;BME280;67082;41.704;44.768;2023-06-22T04:09:20;95563.22;;;20.58;72.39
77889;BME280;67082;41.704;44.768;2023-06-22T04:11:49;95565.78;;;20.62;72.51
77889;BME280;67082;41.704;44.768;2023-06-22T04:14:17;95562.41;;;20.69;72.74
77889;BME280;67082;41.704;44.768;2023-06-22T04:16:46;95565.19;;;20.74;72.05
77889;BME280;67082;41.704;44.768;2023-06-22T04:19:14;95563.38;;;20.82;71.54
77889;BME280;67082;41.704;44.768;2023-06-22T04:21:46;95571.72;;;20.99;71.50
77889;BME280;67082;41.704;44.768;2023-06-22T04:24:16;95565.31;;;20.98;71.34
77889;BME280;67082;41.704;44.768;2023-06-22T04:26:45;95568.81;;;21.10;71.25
77889;BME280;67082;41.704;44.768;2023-06-22T04:29:14;95570.75;;;21.26;70.49
77889;BME280;67082;41.704;44.768;2023-06-22T04:31:43;95570.28;;;21.22;70.19
77889;BME280;67082;41.704;44.768;2023-06-22T04:34:11;95566.66;;;21.21;70.10
77889;BME280;67082;41.704;44.768;2023-06-22T04:36:41;95572.28;;;21.27;70.03
77889;BME280;67082;41.704;44.768;2023-06-22T04:39:12;95573.75;;;21.33;70.04
77889;BME280;67082;41.704;44.768;2023-06-22T04:41:41;95566.25;;;21.41;69.53
77889;BME280;67082;41.704;44.768;2023-06-22T04:44:16;95561.91;;;21.40;69.15
77889;BME280;67082;41.704;44.768;2023-06-22T04:46:58;95565.00;;;21.66;68.70
77889;BME280;67082;41.704;44.768;2023-06-22T04:49:36;95561.88;;;21.75;68.58
77889;BME280;67082;41.704;44.768;2023-06-22T04:52:07;95559.63;;;21.92;67.61
77889;BME280;67082;41.704;44.768;2023-06-22T04:54:36;95564.09;;;22.06;67.35
77889;BME280;67082;41.704;44.768;2023-06-22T04:57:07;95561.72;;;22.34;66.91
77889;BME280;67082;41.704;44.768;2023-06-22T04:59:38;95560.69;;;22.56;66.20
77889;BME280;67082;41.704;44.768;2023-06-22T05:02:07;95554.34;;;22.68;65.88
77889;BME280;67082;41.704;44.768;2023-06-22T05:04:35;95559.78;;;22.66;66.48
77889;BME280;67082;41.704;44.768;2023-06-22T05:07:07;95555.34;;;22.89;65.18
77889;BME280;67082;41.704;44.768;2023-06-22T05:09:35;95553.50;;;22.92;64.67
77889;BME280;67082;41.704;44.768;2023-06-22T05:12:04;95558.13;;;23.08;64.46
77889;BME280;67082;41.704;44.768;2023-06-22T05:14:36;95555.88;;;23.06;64.06
77889;BME280;67082;41.704;44.768;2023-06-22T05:17:04;95555.94;;;23.19;63.97
77889;BME280;67082;41.704;44.768;2023-06-22T05:19:43;95553.97;;;23.46;62.77
77889;BME280;67082;41.704;44.768;2023-06-22T05:22:16;95563.13;;;23.65;61.96
77889;BME280;67082;41.704;44.768;2023-06-22T05:24:45;95560.69;;;23.87;61.34
77889;BME280;67082;41.704;44.768;2023-06-22T05:27:14;95552.63;;;23.91;60.97
77889;BME280;67082;41.704;44.768;2023-06-22T05:29:42;95555.94;;;24.21;60.35
77889;BME280;67082;41.704;44.768;2023-06-22T05:32:11;95552.44;;;24.28;60.37
77889;BME280;67082;41.704;44.768;2023-06-22T05:34:39;95557.13;;;24.26;59.86
77889;BME280;67082;41.704;44.768;2023-06-22T05:37:07;95553.75;;;24.40;60.06
77889;BME280;67082;41.704;44.768;2023-06-22T05:39:37;95546.19;;;24.56;58.45
77889;BME280;67082;41.704;44.768;2023-06-22T05:42:06;95553.63;;;24.46;58.44
77889;BME280;67082;41.704;44.768;2023-06-22T05:44:37;95544.03;;;24.49;57.78
77889;BME280;67082;41.704;44.768;2023-06-22T05:47:07;95550.25;;;24.60;57.55
77889;BME280;67082;41.704;44.768;2023-06-22T05:49:35;95552.41;;;24.54;57.91
77889;BME280;67082;41.704;44.768;2023-06-22T05:52:07;95557.66;;;24.37;57.54
77889;BME280;67082;41.704;44.768;2023-06-22T05:54:35;95565.72;;;24.20;58.32
77889;BME280;67082;41.704;44.768;2023-06-22T05:57:04;95555.72;;;23.93;59.01
77889;BME280;67082;41.704;44.768;2023-06-22T05:59:32;95559.13;;;23.86;58.75
77889;BME280;67082;41.704;44.768;2023-06-22T06:02:00;95558.94;;;23.84;58.78
77889;BME280;67082;41.704;44.768;2023-06-22T06:04:28;95560.50;;;23.98;59.24
77889;BME280;67082;41.704;44.768;2023-06-22T06:06:57;95555.81;;;24.01;58.94
77889;BME280;67082;41.704;44.768;2023-06-22T06:09:25;95551.56;;;24.07;59.13
77889;BME280;67082;41.704;44.768;2023-06-22T06:11:54;95551.78;;;24.09;58.89
77889;BME280;67082;41.704;44.768;2023-06-22T06:14:22;95554.84;;;24.11;58.60
77889;BME280;67082;41.704;44.768;2023-06-22T06:16:50;95558.53;;;24.06;58.87
77889;BME280;67082;41.704;44.768;2023-06-22T06:19:18;95569.00;;;24.11;58.90
77889;BME280;67082;41.704;44.768;2023-06-22T06:21:47;95568.88;;;24.17;60.07
77889;BME280;67082;41.704;44.768;2023-06-22T06:24:15;95568.88;;;23.91;59.55
77889;BME280;67082;41.704;44.768;2023-06-22T06:26:44;95577.94;;;23.71;59.59
77889;BME280;67082;41.704;44.768;2023-06-22T06:29:16;95587.53;;;23.36;62.23
77889;BME280;67082;41.704;44.768;2023-06-22T06:31:44;95583.34;;;22.87;63.47
77889;BME280;67082;41.704;44.768;2023-06-22T06:34:12;95584.44;;;22.66;65.25
77889;BME280;67082;41.704;44.768;2023-06-22T06:36:40;95588.19;;;22.55;66.19
77889;BME280;67082;41.704;44.768;2023-06-22T06:39:09;95582.94;;;22.41;66.04
77889;BME280;67082;41.704;44.768;2023-06-22T06:41:38;95580.16;;;22.35;66.12
77889;BME280;67082;41.704;44.768;2023-06-22T06:44:14;95592.84;;;22.29;65.44
77889;BME280;67082;41.704;44.768;2023-06-22T06:46:43;95588.78;;;22.00;66.12
77889;BME280;67082;41.704;44.768;2023-06-22T06:49:12;95589.50;;;21.82;67.08
77889;BME280;67082;41.704;44.768;2023-06-22T06:51:41;95600.47;;;21.56;66.57
77889;BME280;67082;41.704;44.768;2023-06-22T06:54:09;95606.22;;;21.45;67.04
77889;BME280;67082;41.704;44.768;2023-06-22T06:56:37;95605.72;;;21.41;66.98
77889;BME280;67082;41.704;44.768;2023-06-22T06:59:05;95604.53;;;21.31;65.76
77889;BME280;67082;41.704;44.768;2023-06-22T07:01:34;95596.94;;;21.15;67.08
77889;BME280;67082;41.704;44.768;2023-06-22T07:04:03;95601.91;;;21.04;67.95
77889;BME280;67082;41.704;44.768;2023-06-22T07:06:32;95607.56;;;20.98;68.61
77889;BME280;67082;41.704;44.768;2023-06-22T07:09:01;95607.59;;;20.87;69.29
77889;BME280;67082;41.704;44.768;2023-06-22T07:11:30;95606.84;;;20.87;70.44
77889;BME280;67082;41.704;44.768;2023-06-22T07:13:57;95610.22;;;20.80;71.63
77889;BME280;67082;41.704;44.768;2023-06-22T07:16:27;95610.59;;;20.60;73.77
77889;BME280;67082;41.704;44.768;2023-06-22T07:18:55;95607.56;;;20.47;75.33
77889;BME280;67082;41.704;44.768;2023-06-22T07:21:23;95611.97;;;20.42;76.02
77889;BME280;67082;41.704;44.768;2023-06-22T07:23:51;95615.28;;;20.35;75.78
77889;BME280;67082;41.704;44.768;2023-06-22T07:26:20;95616.31;;;20.38;77.33
77889;BME280;67082;41.704;44.768;2023-06-22T07:28:48;95614.19;;;20.55;76.75
77889;BME280;67082;41.704;44.768;2023-06-22T07:31:18;95612.72;;;20.43;74.98
77889;BME280;67082;41.704;44.768;2023-06-22T07:33:46;95616.31;;;20.38;76.29
77889;BME280;67082;41.704;44.768;2023-06-22T07:36:14;95620.13;;;20.46;77.50
77889;BME280;67082;41.704;44.768;2023-06-22T07:38:42;95627.78;;;20.51;76.08
77889;BME280;67082;41.704;44.768;2023-06-22T07:41:12;95629.81;;;20.50;75.11
77889;BME280;67082;41.704;44.768;2023-06-22T07:43:40;95633.69;;;20.42;76.29
77889;BME280;67082;41.704;44.768;2023-06-22T07:46:08;95631.13;;;20.44;76.11
77889;BME280;67082;41.704;44.768;2023-06-22T07:48:37;95630.31;;;20.54;75.57
77889;BME280;67082;41.704;44.768;2023-06-22T07:51:05;95632.38;;;20.54;74.97
77889;BME280;67082;41.704;44.768;2023-06-22T07:53:34;95621.56;;;20.63;75.66
77889;BME280;67082;41.704;44.768;2023-06-22T07:56:04;95617.00;;;20.60;75.07
77889;BME280;67082;41.704;44.768;2023-06-22T07:58:34;95620.50;;;20.72;74.69
77889;BME280;67082;41.704;44.768;2023-06-22T08:01:04;95615.94;;;20.69;75.27
77889;BME280;67082;41.704;44.768;2023-06-22T08:03:33;95620.22;;;20.75;76.09
77889;BME280;67082;41.704;44.768;2023-06-22T08:06:02;95627.16;;;20.74;75.01
77889;BME280;67082;41.704;44.768;2023-06-22T08:08:30;95627.69;;;20.67;75.74
77889;BME280;67082;41.704;44.768;2023-06-22T08:10:58;95626.34;;;20.85;75.92
77889;BME280;67082;41.704;44.768;2023-06-22T08:13:27;95634.53;;;20.83;76.62
77889;BME280;67082;41.704;44.768;2023-06-22T08:15:55;95629.63;;;20.94;77.00
77889;BME280;67082;41.704;44.768;2023-06-22T08:18:23;95625.03;;;20.91;76.55
77889;BME280;67082;41.704;44.768;2023-06-22T08:20:52;95618.84;;;20.98;76.94
77889;BME280;67082;41.704;44.768;2023-06-22T08:23:20;95623.97;;;21.00;77.09
77889;BME280;67082;41.704;44.768;2023-06-22T08:25:49;95609.13;;;20.99;76.88
77889;BME280;67082;41.704;44.768;2023-06-22T08:28:18;95603.56;;;20.88;76.78
77889;BME280;67082;41.704;44.768;2023-06-22T08:30:46;95597.69;;;20.81;76.58
77889;BME280;67082;41.704;44.768;2023-06-22T08:33:14;95599.97;;;20.82;76.85
77889;BME280;67082;41.704;44.768;2023-06-22T08:35:55;95603.75;;;20.96;77.36
77889;BME280;67082;41.704;44.768;2023-06-22T08:38:23;95609.31;;;21.07;76.38
77889;BME280;67082;41.704;44.768;2023-06-22T08:40:51;95599.31;;;21.11;76.06
77889;BME280;67082;41.704;44.768;2023-06-22T08:43:19;95608.50;;;21.12;75.80
77889;BME280;67082;41.704;44.768;2023-06-22T08:45:48;95608.00;;;21.13;75.87
77889;BME280;67082;41.704;44.768;2023-06-22T08:48:17;95608.00;;;21.13;75.55
77889;BME280;67082;41.704;44.768;2023-06-22T08:50:46;95611.53;;;21.19;75.92
77889;BME280;67082;41.704;44.768;2023-06-22T08:53:14;95604.38;;;21.18;75.70
77889;BME280;67082;41.704;44.768;2023-06-22T08:55:42;95596.50;;;21.11;74.89
77889;BME280;67082;41.704;44.768;2023-06-22T08:58:11;95599.25;;;21.17;74.60
77889;BME280;67082;41.704;44.768;2023-06-22T09:00:39;95595.78;;;21.35;74.23
77889;BME280;67082;41.704;44.768;2023-06-22T09:03:07;95599.16;;;21.28;74.65
77889;BME280;67082;41.704;44.768;2023-06-22T09:05:37;95600.97;;;21.31;74.71
77889;BME280;67082;41.704;44.768;2023-06-22T09:08:06;95604.09;;;21.22;75.52
77889;BME280;67082;41.704;44.768;2023-06-22T09:10:34;95601.69;;;21.31;75.46
77889;BME280;67082;41.704;44.768;2023-06-22T09:13:02;95596.66;;;21.19;76.01
77889;BME280;67082;41.704;44.768;2023-06-22T09:15:31;95594.19;;;21.39;74.91
77889;BME280;67082;41.704;44.768;2023-06-22T09:17:59;95603.34;;;21.51;74.55
77889;BME280;67082;41.704;44.768;2023-06-22T09:20:28;95603.41;;;21.45;75.50
77889;BME280;67082;41.704;44.768;2023-06-22T09:22:57;95608.03;;;21.43;75.74
77889;BME280;67082;41.704;44.768;2023-06-22T09:25:26;95605.25;;;21.37;74.94
77889;BME280;67082;41.704;44.768;2023-06-22T09:27:54;95604.22;;;21.40;74.16
77889;BME280;67082;41.704;44.768;2023-06-22T09:30:23;95599.75;;;21.50;74.26
77889;BME280;67082;41.704;44.768;2023-06-22T09:32:51;95593.50;;;21.63;73.04
77889;BME280;67082;41.704;44.768;2023-06-22T09:35:20;95594.59;;;21.54;73.61
77889;BME280;67082;41.704;44.768;2023-06-22T09:37:48;95590.13;;;21.70;73.52
77889;BME280;67082;41.704;44.768;2023-06-22T09:40:16;95589.38;;;21.69;74.04
77889;BME280;67082;41.704;44.768;2023-06-22T09:42:45;95596.31;;;21.68;74.70
77889;BME280;67082;41.704;44.768;2023-06-22T09:45:14;95587.00;;;21.73;74.46
77889;BME280;67082;41.704;44.768;2023-06-22T09:47:42;95594.34;;;21.82;73.95
77889;BME280;67082;41.704;44.768;2023-06-22T09:50:11;95589.81;;;21.73;74.79
77889;BME280;67082;41.704;44.768;2023-06-22T09:52:39;95594.66;;;21.78;73.73
77889;BME280;67082;41.704;44.768;2023-06-22T09:55:15;95591.91;;;21.73;73.31
77889;BME280;67082;41.704;44.768;2023-06-22T09:57:45;95590.53;;;21.79;73.71
77889;BME280;67082;41.704;44.768;2023-06-22T10:00:18;95591.78;;;21.84;73.90
77889;BME280;67082;41.704;44.768;2023-06-22T10:02:46;95585.78;;;21.93;74.10
77889;BME280;67082;41.704;44.768;2023-06-22T10:05:15;95584.84;;;21.85;73.69
77889;BME280;67082;41.704;44.768;2023-06-22T10:07:43;95582.22;;;21.92;72.59
77889;BME280;67082;41.704;44.768;2023-06-22T10:10:13;95580.22;;;21.87;72.93
77889;BME280;67082;41.704;44.768;2023-06-22T10:12:43;95582.97;;;21.93;73.81
77889;BME280;67082;41.704;44.768;2023-06-22T10:15:12;95573.78;;;21.87;72.23
77889;BME280;67082;41.704;44.768;2023-06-22T10:17:41;95572.22;;;21.91;73.28
77889;BME280;67082;41.704;44.768;2023-06-22T10:20:10;95580.81;;;22.04;72.84
77889;BME280;67082;41.704;44.768;2023-06-22T10:22:41;95584.97;;;21.98;71.70
77889;BME280;67082;41.704;44.768;2023-06-22T10:25:11;95580.72;;;22.10;71.65
77889;BME280;67082;41.704;44.768;2023-06-22T10:27:39;95574.56;;;22.11;71.39
77889;BME280;67082;41.704;44.768;2023-06-22T10:30:10;95570.91;;;22.16;70.61
77889;BME280;67082;41.704;44.768;2023-06-22T10:32:42;95581.25;;;22.32;71.96
77889;BME280;67082;41.704;44.768;2023-06-22T10:35:13;95584.88;;;22.51;70.23
77889;BME280;67082;41.704;44.768;2023-06-22T10:37:44;95573.91;;;22.42;70.19
77889;BME280;67082;41.704;44.768;2023-06-22T10:40:14;95577.03;;;22.44;68.88
77889;BME280;67082;41.704;44.768;2023-06-22T10:42:45;95570.16;;;22.58;69.35
77889;BME280;67082;41.704;44.768;2023-06-22T10:45:13;95581.09;;;22.67;68.80
77889;BME280;67082;41.704;44.768;2023-06-22T10:47:42;95583.59;;;22.52;69.65
77889;BME280;67082;41.704;44.768;2023-06-22T10:50:11;95581.88;;;22.44;69.33
77889;BME280;67082;41.704;44.768;2023-06-22T10:52:39;95575.22;;;22.41;68.87
77889;BME280;67082;41.704;44.768;2023-06-22T10:55:10;95577.88;;;22.34;68.10
77889;BME280;67082;41.704;44.768;2023-06-22T10:57:38;95581.88;;;22.44;67.29
77889;BME280;67082;41.704;44.768;2023-06-22T11:00:12;95581.44;;;22.58;67.01
77889;BME280;67082;41.704;44.768;2023-06-22T11:02:40;95586.19;;;22.50;66.18
77889;BME280;67082;41.704;44.768;2023-06-22T11:05:09;95594.19;;;22.46;66.89
77889;BME280;67082;41.704;44.768;2023-06-22T11:07:40;95595.97;;;22.49;65.26
77889;BME280;67082;41.704;44.768;2023-06-22T11:10:12;95598.09;;;22.43;65.34
77889;BME280;67082;41.704;44.768;2023-06-22T11:12:41;95589.41;;;22.36;66.06
77889;BME280;67082;41.704;44.768;2023-06-22T11:15:10;95598.41;;;22.34;66.10
77889;BME280;67082;41.704;44.768;2023-06-22T11:17:38;95595.47;;;22.45;66.17
77889;BME280;67082;41.704;44.768;2023-06-22T11:20:06;95590.31;;;22.49;66.00
77889;BME280;67082;41.704;44.768;2023-06-22T11:22:40;95584.53;;;22.60;67.11
77889;BME280;67082;41.704;44.768;2023-06-22T11:25:09;95588.88;;;22.61;68.90
77889;BME280;67082;41.704;44.768;2023-06-22T11:27:39;95586.56;;;22.60;69.28
77889;BME280;67082;41.704;44.768;2023-06-22T11:30:08;95595.03;;;22.60;69.32
77889;BME280;67082;41.704;44.768;2023-06-22T11:32:37;95596.78;;;22.63;69.70
77889;BME280;67082;41.704;44.768;2023-06-22T11:35:06;95597.09;;;22.59;69.83
77889;BME280;67082;41.704;44.768;2023-06-22T11:37:34;95596.94;;;22.52;71.17
77889;BME280;67082;41.704;44.768;2023-06-22T11:40:02;95604.97;;;22.42;70.56
77889;BME280;67082;41.704;44.768;2023-06-22T11:42:35;95607.06;;;22.42;66.30
77889;BME280;67082;41.704;44.768;2023-06-22T11:45:05;95603.78;;;22.14;67.50
77889;BME280;67082;41.704;44.768;2023-06-22T11:47:34;95597.84;;;22.17;67.65
77889;BME280;67082;41.704;44.768;2023-06-22T11:50:03;95609.00;;;22.28;68.09
77889;BME280;67082;41.704;44.768;2023-06-22T11:52:33;95610.53;;;22.05;67.97
77889;BME280;67082;41.704;44.768;2023-06-22T11:55:01;95611.66;;;21.97;69.10
77889;BME280;67082;41.704;44.768;2023-06-22T11:57:55;95615.78;;;21.96;69.27
77889;BME280;67082;41.704;44.768;2023-06-22T12:00:24;95615.00;;;21.95;69.88
77889;BME280;67082;41.704;44.768;2023-06-22T12:02:57;95616.19;;;21.81;69.59
77889;BME280;67082;41.704;44.768;2023-06-22T12:05:27;95616.75;;;21.74;70.04
77889;BME280;67082;41.704;44.768;2023-06-22T12:07:56;95616.19;;;21.81;69.73
77889;BME280;67082;41.704;44.768;2023-06-22T12:10:27;95615.97;;;21.74;70.09
77889;BME280;67082;41.704;44.768;2023-06-22T12:12:59;95612.94;;;21.72;70.40
77889;BME280;67082;41.704;44.768;2023-06-22T12:15:27;95624.50;;;21.68;70.17
77889;BME280;67082;41.704;44.768;2023-06-22T12:17:56;95624.22;;;21.66;70.98
77889;BME280;67082;41.704;44.768;2023-06-22T12:20:24;95622.84;;;21.78;71.50
77889;BME280;67082;41.704;44.768;2023-06-22T12:22:53;95631.31;;;21.78;73.94
77889;BME280;67082;41.704;44.768;2023-06-22T12:25:23;95630.59;;;21.72;72.27
77889;BME280;67082;41.704;44.768;2023-06-22T12:27:52;95635.72;;;21.74;72.06
77889;BME280;67082;41.704;44.768;2023-06-22T12:30:22;95638.78;;;21.76;72.53
77889;BME280;67082;41.704;44.768;2023-06-22T12:32:51;95641.06;;;21.77;72.81
77889;BME280;67082;41.704;44.768;2023-06-22T12:35:22;95640.66;;;21.68;72.85
77889;BME280;67082;41.704;44.768;2023-06-22T12:37:50;95642.66;;;21.73;73.33
77889;BME280;67082;41.704;44.768;2023-06-22T12:40:19;95642.22;;;21.63;72.65
77889;BME280;67082;41.704;44.768;2023-06-22T12:42:47;95640.38;;;21.71;72.90
77889;BME280;67082;41.704;44.768;2023-06-22T12:45:15;95637.97;;;21.81;73.86
77889;BME280;67082;41.704;44.768;2023-06-22T12:47:44;95638.56;;;21.74;73.29
77889;BME280;67082;41.704;44.768;2023-06-22T12:50:11;95651.78;;;21.84;74.25
77889;BME280;67082;41.704;44.768;2023-06-22T12:52:40;95657.19;;;21.82;74.60
77889;BME280;67082;41.704;44.768;2023-06-22T12:55:09;95648.31;;;21.73;75.44
77889;BME280;67082;41.704;44.768;2023-06-22T12:57:38;95658.06;;;21.72;75.82
77889;BME280;67082;41.704;44.768;2023-06-22T13:00:06;95657.28;;;21.71;76.23
77889;BME280;67082;41.704;44.768;2023-06-22T13:02:37;95660.09;;;21.71;75.24
77889;BME280;67082;41.704;44.768;2023-06-22T13:05:05;95662.34;;;21.78;75.63
77889;BME280;67082;41.704;44.768;2023-06-22T13:07:34;95670.81;;;21.78;75.65
77889;BME280;67082;41.704;44.768;2023-06-22T13:10:03;95667.78;;;21.71;75.53
77889;BME280;67082;41.704;44.768;2023-06-22T13:12:33;95668.59;;;21.66;76.27
77889;BME280;67082;41.704;44.768;2023-06-22T13:15:01;95663.41;;;21.40;77.74